Terminal Aerodrome Forecast
Issued by NWS Boston, MA

Home | Current Version | Previous Version | Text Only | Print | Product List | Glossary On
Versions: 1 2 3 4 5 6 7 8 9 10 11 12 13 14 15 16 17 18 19 20 21 22 23 24 25 26 27 28 29 30 31 32 33 34 35 36 37 38 39 40 41 42 43 44 45 46 47
000
FTUS41 KBOX 261129
TAFBDL
TAF
KBDL 261129Z 2612/2718 01008KT P6SM OVC050
     FM261800 02008KT P6SM OVC025
     FM261900 02008KT 3SM -SHSN OVC025
     FM262100 02009KT 2SM -SN OVC040
     FM270000 02012KT 1/2SM SN OVC040
     FM270300 02013G23KT 1/2SM SN OVC010
     FM270600 01014G33KT 1/4SM +SN OVC010
     FM270800 36015G35KT 1/4SM +SN BLSN OVC015=

USA.gov is the U.S. government's official web portal to all federal, state and local government web resources and services.